logo dgac
Martes 21 de Septiembre del 2021
Buscar por aerodromo o helipuerto
Ingrese nombre de aeródromo, localidad o designador OACI:
TAF: TAF SCNT 211006Z 2112/2200 30007KT 9000 -RA SCT020 BKN040 TN09/2112Z TX17/2118Z TEMPO 2114/2118 VRB03KT 6000 -RA SCT015 BKN030
TAF del 21/09/2021 a las 10:06 UTC
Para mayor información visite www.meteochile.cl
Período de validez: desde el 21 a las 12:00 UTC hasta el 22 a las 00:00 UTC
Viento: dirección 300 grados, velocidad 7 nudos
Visibilidad: 9000 metros
Débil Lluvia
Nubes: Nubosidad parcial a 2000 pies sobre el nivel del aeródromo
Nubes: Nublado a 4000 pies sobre el nivel del aeródromo
Temperatura mínima: 9ºC el 21 a las 12:00 UTC
Temperatura máxima: 17ºC el 21 a las 18:00 UTC
Se espera en forma temporal entre las 14:00 UTC del 21 y las 18:00 UTC del 21:
Viento: dirección variable, velocidad 3 nudos
Visibilidad: 6000 metros
Débil Lluvia
Nubes: Nubosidad parcial a 1500 pies sobre el nivel del aeródromo
Nubes: Nublado a 3000 pies sobre el nivel del aeródromo